sensor_id;sensor_type;location;lat;lon;timestamp;P1;durP1;ratioP1;P2;durP2;ratioP2
52458;SDS011;38372;52.902;6.024;2024-02-21T00:01:18;12.13;;;1.52;;
52458;SDS011;38372;52.902;6.024;2024-02-21T00:03:45;4.28;;;1.23;;
52458;SDS011;38372;52.902;6.024;2024-02-21T00:06:17;4.95;;;1.20;;
52458;SDS011;38372;52.902;6.024;2024-02-21T00:08:44;6.97;;;0.85;;
52458;SDS011;38372;52.902;6.024;2024-02-21T00:11:11;4.88;;;1.20;;
52458;SDS011;38372;52.902;6.024;2024-02-21T00:13:37;6.75;;;1.02;;
52458;SDS011;38372;52.902;6.024;2024-02-21T00:16:13;3.88;;;1.17;;
52458;SDS011;38372;52.902;6.024;2024-02-21T00:18:41;9.55;;;0.93;;
52458;SDS011;38372;52.902;6.024;2024-02-21T00:21:12;5.45;;;1.00;;
52458;SDS011;38372;52.902;6.024;2024-02-21T00:23:43;3.78;;;1.45;;
52458;SDS011;38372;52.902;6.024;2024-02-21T00:26:11;8.43;;;1.88;;
52458;SDS011;38372;52.902;6.024;2024-02-21T00:28:38;7.57;;;1.52;;
52458;SDS011;38372;52.902;6.024;2024-02-21T00:31:04;8.23;;;1.20;;
52458;SDS011;38372;52.902;6.024;2024-02-21T00:33:30;6.15;;;1.80;;
52458;SDS011;38372;52.902;6.024;2024-02-21T00:35:56;6.03;;;1.10;;
52458;SDS011;38372;52.902;6.024;2024-02-21T00:38:28;5.88;;;1.23;;
52458;SDS011;38372;52.902;6.024;2024-02-21T00:41:00;11.32;;;1.30;;
52458;SDS011;38372;52.902;6.024;2024-02-21T00:43:32;4.18;;;1.05;;
52458;SDS011;38372;52.902;6.024;2024-02-21T00:45:58;7.40;;;1.27;;
52458;SDS011;38372;52.902;6.024;2024-02-21T00:48:24;7.28;;;1.00;;
52458;SDS011;38372;52.902;6.024;2024-02-21T00:50:50;3.00;;;0.88;;
52458;SDS011;38372;52.902;6.024;2024-02-21T00:53:15;3.55;;;0.80;;
52458;SDS011;38372;52.902;6.024;2024-02-21T00:55:41;6.30;;;0.80;;
52458;SDS011;38372;52.902;6.024;2024-02-21T00:58:08;3.80;;;1.13;;
52458;SDS011;38372;52.902;6.024;2024-02-21T01:00:34;5.80;;;1.17;;
52458;SDS011;38372;52.902;6.024;2024-02-21T01:03:00;4.05;;;1.50;;
52458;SDS011;38372;52.902;6.024;2024-02-21T01:05:25;6.28;;;1.40;;
52458;SDS011;38372;52.902;6.024;2024-02-21T01:07:53;1.15;;;0.65;;
52458;SDS011;38372;52.902;6.024;2024-02-21T01:10:19;6.20;;;1.45;;
52458;SDS011;38372;52.902;6.024;2024-02-21T01:12:45;6.78;;;1.65;;
52458;SDS011;38372;52.902;6.024;2024-02-21T01:15:10;5.03;;;1.77;;
52458;SDS011;38372;52.902;6.024;2024-02-21T01:17:37;10.00;;;1.20;;
52458;SDS011;38372;52.902;6.024;2024-02-21T01:20:03;6.40;;;1.92;;
52458;SDS011;38372;52.902;6.024;2024-02-21T01:22:32;8.80;;;1.60;;
52458;SDS011;38372;52.902;6.024;2024-02-21T01:24:58;6.97;;;1.50;;
52458;SDS011;38372;52.902;6.024;2024-02-21T01:27:33;6.07;;;1.38;;
52458;SDS011;38372;52.902;6.024;2024-02-21T01:30:00;9.77;;;2.00;;
52458;SDS011;38372;52.902;6.024;2024-02-21T01:32:26;6.95;;;1.20;;
52458;SDS011;38372;52.902;6.024;2024-02-21T01:34:51;8.60;;;2.55;;
52458;SDS011;38372;52.902;6.024;2024-02-21T01:37:17;4.32;;;2.05;;
52458;SDS011;38372;52.902;6.024;2024-02-21T01:39:49;7.95;;;1.15;;
52458;SDS011;38372;52.902;6.024;2024-02-21T01:42:15;7.43;;;1.95;;
52458;SDS011;38372;52.902;6.024;2024-02-21T01:44:41;7.10;;;1.58;;
52458;SDS011;38372;52.902;6.024;2024-02-21T01:47:07;12.93;;;1.90;;
52458;SDS011;38372;52.902;6.024;2024-02-21T01:49:33;9.15;;;1.40;;
52458;SDS011;38372;52.902;6.024;2024-02-21T01:51:59;7.95;;;2.67;;
52458;SDS011;38372;52.902;6.024;2024-02-21T01:54:26;6.75;;;1.50;;
52458;SDS011;38372;52.902;6.024;2024-02-21T01:56:53;5.07;;;1.55;;
52458;SDS011;38372;52.902;6.024;2024-02-21T01:59:19;2.80;;;1.35;;
52458;SDS011;38372;52.902;6.024;2024-02-21T02:01:47;4.50;;;1.45;;
52458;SDS011;38372;52.902;6.024;2024-02-21T02:04:13;14.15;;;1.52;;
52458;SDS011;38372;52.902;6.024;2024-02-21T02:06:39;4.35;;;1.00;;
52458;SDS011;38372;52.902;6.024;2024-02-21T02:09:06;13.95;;;2.08;;
52458;SDS011;38372;52.902;6.024;2024-02-21T02:11:32;6.00;;;2.35;;
52458;SDS011;38372;52.902;6.024;2024-02-21T02:13:58;5.88;;;1.27;;
52458;SDS011;38372;52.902;6.024;2024-02-21T02:16:24;2.25;;;1.30;;
52458;SDS011;38372;52.902;6.024;2024-02-21T02:18:50;9.10;;;1.67;;
52458;SDS011;38372;52.902;6.024;2024-02-21T02:21:27;9.88;;;1.17;;
52458;SDS011;38372;52.902;6.024;2024-02-21T02:23:57;9.07;;;1.98;;
52458;SDS011;38372;52.902;6.024;2024-02-21T02:26:28;10.00;;;1.75;;
52458;SDS011;38372;52.902;6.024;2024-02-21T02:28:54;2.40;;;1.17;;
52458;SDS011;38372;52.902;6.024;2024-02-21T02:31:21;10.20;;;1.70;;
52458;SDS011;38372;52.902;6.024;2024-02-21T02:33:47;9.38;;;1.63;;
52458;SDS011;38372;52.902;6.024;2024-02-21T02:36:13;8.15;;;2.33;;
52458;SDS011;38372;52.902;6.024;2024-02-21T02:38:39;5.45;;;1.77;;
52458;SDS011;38372;52.902;6.024;2024-02-21T02:41:12;8.10;;;1.08;;
52458;SDS011;38372;52.902;6.024;2024-02-21T02:43:38;6.00;;;1.73;;
52458;SDS011;38372;52.902;6.024;2024-02-21T02:46:04;7.97;;;1.80;;
52458;SDS011;38372;52.902;6.024;2024-02-21T02:48:30;11.73;;;1.75;;
52458;SDS011;38372;52.902;6.024;2024-02-21T02:50:55;6.55;;;1.52;;
52458;SDS011;38372;52.902;6.024;2024-02-21T02:53:23;9.68;;;2.35;;
52458;SDS011;38372;52.902;6.024;2024-02-21T02:55:50;5.05;;;1.40;;
52458;SDS011;38372;52.902;6.024;2024-02-21T02:58:15;7.95;;;1.50;;
52458;SDS011;38372;52.902;6.024;2024-02-21T03:00:41;6.55;;;1.90;;
52458;SDS011;38372;52.902;6.024;2024-02-21T03:03:07;8.88;;;2.15;;
52458;SDS011;38372;52.902;6.024;2024-02-21T03:05:33;5.25;;;1.75;;
52458;SDS011;38372;52.902;6.024;2024-02-21T03:07:59;10.23;;;1.85;;
52458;SDS011;38372;52.902;6.024;2024-02-21T03:10:25;11.20;;;2.60;;
52458;SDS011;38372;52.902;6.024;2024-02-21T03:12:52;15.88;;;2.35;;
52458;SDS011;38372;52.902;6.024;2024-02-21T03:15:18;6.40;;;1.58;;
52458;SDS011;38372;52.902;6.024;2024-02-21T03:17:48;7.60;;;2.15;;
52458;SDS011;38372;52.902;6.024;2024-02-21T03:20:14;6.15;;;1.83;;
52458;SDS011;38372;52.902;6.024;2024-02-21T03:22:42;5.85;;;1.35;;
52458;SDS011;38372;52.902;6.024;2024-02-21T03:25:08;4.68;;;2.08;;
52458;SDS011;38372;52.902;6.024;2024-02-21T03:27:39;2.58;;;1.58;;
52458;SDS011;38372;52.902;6.024;2024-02-21T03:30:04;7.45;;;2.05;;
52458;SDS011;38372;52.902;6.024;2024-02-21T03:32:32;15.13;;;1.83;;
52458;SDS011;38372;52.902;6.024;2024-02-21T03:34:57;7.03;;;1.98;;
52458;SDS011;38372;52.902;6.024;2024-02-21T03:37:23;15.13;;;2.65;;
52458;SDS011;38372;52.902;6.024;2024-02-21T03:39:49;8.60;;;1.88;;
52458;SDS011;38372;52.902;6.024;2024-02-21T03:42:28;8.38;;;2.15;;
52458;SDS011;38372;52.902;6.024;2024-02-21T03:44:56;4.45;;;1.13;;
52458;SDS011;38372;52.902;6.024;2024-02-21T03:47:22;4.97;;;1.40;;
52458;SDS011;38372;52.902;6.024;2024-02-21T03:49:48;13.88;;;2.53;;
52458;SDS011;38372;52.902;6.024;2024-02-21T03:52:13;3.88;;;1.88;;
52458;SDS011;38372;52.902;6.024;2024-02-21T03:54:39;14.20;;;2.42;;
52458;SDS011;38372;52.902;6.024;2024-02-21T03:57:05;7.57;;;2.25;;
52458;SDS011;38372;52.902;6.024;2024-02-21T03:59:31;6.50;;;2.38;;
52458;SDS011;38372;52.902;6.024;2024-02-21T04:01:57;7.15;;;1.83;;
52458;SDS011;38372;52.902;6.024;2024-02-21T04:04:23;3.15;;;0.82;;
52458;SDS011;38372;52.902;6.024;2024-02-21T04:06:49;10.93;;;2.08;;
52458;SDS011;38372;52.902;6.024;2024-02-21T04:09:16;4.13;;;1.17;;
52458;SDS011;38372;52.902;6.024;2024-02-21T04:11:42;8.57;;;1.92;;
52458;SDS011;38372;52.902;6.024;2024-02-21T04:14:08;9.35;;;1.83;;
52458;SDS011;38372;52.902;6.024;2024-02-21T04:16:34;11.05;;;1.83;;
52458;SDS011;38372;52.902;6.024;2024-02-21T04:19:00;12.75;;;2.55;;
52458;SDS011;38372;52.902;6.024;2024-02-21T04:21:27;6.35;;;1.00;;
52458;SDS011;38372;52.902;6.024;2024-02-21T04:23:53;7.05;;;1.77;;
52458;SDS011;38372;52.902;6.024;2024-02-21T04:26:18;6.03;;;1.48;;
52458;SDS011;38372;52.902;6.024;2024-02-21T04:28:47;8.32;;;2.20;;
52458;SDS011;38372;52.902;6.024;2024-02-21T04:31:13;6.68;;;3.47;;
52458;SDS011;38372;52.902;6.024;2024-02-21T04:33:39;6.38;;;1.73;;
52458;SDS011;38372;52.902;6.024;2024-02-21T04:36:04;6.93;;;2.45;;
52458;SDS011;38372;52.902;6.024;2024-02-21T04:38:30;10.73;;;2.55;;
52458;SDS011;38372;52.902;6.024;2024-02-21T04:43:42;4.82;;;1.98;;
52458;SDS011;38372;52.902;6.024;2024-02-21T04:46:08;6.75;;;1.60;;
52458;SDS011;38372;52.902;6.024;2024-02-21T04:48:35;5.40;;;1.50;;
52458;SDS011;38372;52.902;6.024;2024-02-21T04:51:00;11.00;;;2.42;;
52458;SDS011;38372;52.902;6.024;2024-02-21T04:53:26;4.88;;;1.98;;
52458;SDS011;38372;52.902;6.024;2024-02-21T04:55:52;3.92;;;1.67;;
52458;SDS011;38372;52.902;6.024;2024-02-21T04:58:18;6.55;;;2.22;;
52458;SDS011;38372;52.902;6.024;2024-02-21T05:00:43;6.57;;;1.80;;
52458;SDS011;38372;52.902;6.024;2024-02-21T05:03:09;4.25;;;2.28;;
52458;SDS011;38372;52.902;6.024;2024-02-21T05:05:36;7.72;;;2.22;;
52458;SDS011;38372;52.902;6.024;2024-02-21T05:08:02;7.45;;;2.75;;
52458;SDS011;38372;52.902;6.024;2024-02-21T05:10:28;6.97;;;2.15;;
52458;SDS011;38372;52.902;6.024;2024-02-21T05:12:53;6.82;;;2.25;;
52458;SDS011;38372;52.902;6.024;2024-02-21T05:15:19;9.82;;;3.38;;
52458;SDS011;38372;52.902;6.024;2024-02-21T05:17:45;11.05;;;3.10;;
52458;SDS011;38372;52.902;6.024;2024-02-21T05:20:11;8.02;;;2.80;;
52458;SDS011;38372;52.902;6.024;2024-02-21T05:22:36;6.10;;;2.33;;
52458;SDS011;38372;52.902;6.024;2024-02-21T05:25:02;12.13;;;2.30;;
52458;SDS011;38372;52.902;6.024;2024-02-21T05:27:28;14.30;;;3.35;;
52458;SDS011;38372;52.902;6.024;2024-02-21T05:29:54;7.65;;;2.60;;
52458;SDS011;38372;52.902;6.024;2024-02-21T05:32:20;6.65;;;3.20;;
52458;SDS011;38372;52.902;6.024;2024-02-21T05:34:48;6.20;;;2.42;;
52458;SDS011;38372;52.902;6.024;2024-02-21T05:37:15;7.30;;;1.63;;
52458;SDS011;38372;52.902;6.024;2024-02-21T05:39:40;13.88;;;2.95;;
52458;SDS011;38372;52.902;6.024;2024-02-21T05:42:12;7.57;;;2.10;;
52458;SDS011;38372;52.902;6.024;2024-02-21T05:44:38;16.88;;;3.15;;
52458;SDS011;38372;52.902;6.024;2024-02-21T05:47:04;9.18;;;2.95;;
52458;SDS011;38372;52.902;6.024;2024-02-21T05:49:30;11.48;;;3.00;;
52458;SDS011;38372;52.902;6.024;2024-02-21T05:51:56;9.13;;;2.38;;
52458;SDS011;38372;52.902;6.024;2024-02-21T05:54:21;11.13;;;2.53;;
52458;SDS011;38372;52.902;6.024;2024-02-21T05:56:47;6.97;;;2.13;;
52458;SDS011;38372;52.902;6.024;2024-02-21T05:59:13;14.75;;;2.47;;
52458;SDS011;38372;52.902;6.024;2024-02-21T06:01:39;10.35;;;2.33;;
52458;SDS011;38372;52.902;6.024;2024-02-21T06:04:04;12.13;;;2.20;;
52458;SDS011;38372;52.902;6.024;2024-02-21T06:06:30;11.70;;;2.20;;
52458;SDS011;38372;52.902;6.024;2024-02-21T06:08:56;5.78;;;2.60;;
52458;SDS011;38372;52.902;6.024;2024-02-21T06:11:23;6.35;;;2.38;;
52458;SDS011;38372;52.902;6.024;2024-02-21T06:13:49;18.75;;;2.50;;
52458;SDS011;38372;52.902;6.024;2024-02-21T06:16:15;18.02;;;2.70;;
52458;SDS011;38372;52.902;6.024;2024-02-21T06:18:41;8.52;;;2.78;;
52458;SDS011;38372;52.902;6.024;2024-02-21T06:21:07;17.40;;;2.97;;
52458;SDS011;38372;52.902;6.024;2024-02-21T06:23:33;6.53;;;1.58;;
52458;SDS011;38372;52.902;6.024;2024-02-21T06:25:58;7.60;;;2.13;;
52458;SDS011;38372;52.902;6.024;2024-02-21T06:28:24;5.50;;;2.13;;
52458;SDS011;38372;52.902;6.024;2024-02-21T06:30:50;10.35;;;2.75;;
52458;SDS011;38372;52.902;6.024;2024-02-21T06:33:22;8.98;;;2.03;;
52458;SDS011;38372;52.902;6.024;2024-02-21T06:35:50;7.18;;;1.52;;
52458;SDS011;38372;52.902;6.024;2024-02-21T06:38:18;5.15;;;2.13;;
52458;SDS011;38372;52.902;6.024;2024-02-21T06:40:51;5.93;;;1.20;;
52458;SDS011;38372;52.902;6.024;2024-02-21T06:45:50;10.57;;;1.73;;
52458;SDS011;38372;52.902;6.024;2024-02-21T06:48:16;12.50;;;1.73;;
52458;SDS011;38372;52.902;6.024;2024-02-21T06:50:42;4.47;;;1.65;;
52458;SDS011;38372;52.902;6.024;2024-02-21T06:53:08;3.10;;;1.52;;
52458;SDS011;38372;52.902;6.024;2024-02-21T06:55:34;7.20;;;1.90;;
52458;SDS011;38372;52.902;6.024;2024-02-21T06:58:00;7.53;;;1.60;;
52458;SDS011;38372;52.902;6.024;2024-02-21T07:00:28;8.00;;;2.42;;
52458;SDS011;38372;52.902;6.024;2024-02-21T07:02:54;13.52;;;2.08;;
52458;SDS011;38372;52.902;6.024;2024-02-21T07:05:20;5.65;;;1.58;;
52458;SDS011;38372;52.902;6.024;2024-02-21T07:07:46;5.10;;;1.98;;
52458;SDS011;38372;52.902;6.024;2024-02-21T07:10:11;6.85;;;1.88;;
52458;SDS011;38372;52.902;6.024;2024-02-21T07:12:37;14.70;;;2.97;;
52458;SDS011;38372;52.902;6.024;2024-02-21T07:15:07;5.88;;;1.55;;
52458;SDS011;38372;52.902;6.024;2024-02-21T07:17:32;14.90;;;2.00;;
52458;SDS011;38372;52.902;6.024;2024-02-21T07:19:58;9.43;;;2.10;;
52458;SDS011;38372;52.902;6.024;2024-02-21T07:22:24;6.65;;;2.30;;
52458;SDS011;38372;52.902;6.024;2024-02-21T07:24:50;7.55;;;2.08;;
52458;SDS011;38372;52.902;6.024;2024-02-21T07:27:16;9.13;;;1.92;;
52458;SDS011;38372;52.902;6.024;2024-02-21T07:29:42;2.92;;;2.22;;
52458;SDS011;38372;52.902;6.024;2024-02-21T07:32:07;9.82;;;2.40;;
52458;SDS011;38372;52.902;6.024;2024-02-21T07:34:33;9.00;;;2.95;;
52458;SDS011;38372;52.902;6.024;2024-02-21T07:36:59;8.75;;;2.53;;
52458;SDS011;38372;52.902;6.024;2024-02-21T07:39:25;9.05;;;2.03;;
52458;SDS011;38372;52.902;6.024;2024-02-21T07:41:57;8.25;;;3.20;;
52458;SDS011;38372;52.902;6.024;2024-02-21T07:44:23;5.22;;;2.35;;
52458;SDS011;38372;52.902;6.024;2024-02-21T07:46:49;4.97;;;2.80;;
52458;SDS011;38372;52.902;6.024;2024-02-21T07:49:14;12.45;;;4.32;;
52458;SDS011;38372;52.902;6.024;2024-02-21T07:51:40;5.18;;;2.85;;
52458;SDS011;38372;52.902;6.024;2024-02-21T07:54:07;9.73;;;3.03;;
52458;SDS011;38372;52.902;6.024;2024-02-21T07:56:33;8.60;;;4.35;;
52458;SDS011;38372;52.902;6.024;2024-02-21T07:58:59;11.30;;;3.85;;
52458;SDS011;38372;52.902;6.024;2024-02-21T08:01:24;18.15;;;4.55;;
52458;SDS011;38372;52.902;6.024;2024-02-21T08:03:50;11.27;;;4.85;;
52458;SDS011;38372;52.902;6.024;2024-02-21T08:06:16;16.55;;;5.05;;
52458;SDS011;38372;52.902;6.024;2024-02-21T08:08:41;14.15;;;4.53;;
52458;SDS011;38372;52.902;6.024;2024-02-21T08:11:07;10.93;;;4.90;;
52458;SDS011;38372;52.902;6.024;2024-02-21T08:13:33;12.00;;;4.13;;
52458;SDS011;38372;52.902;6.024;2024-02-21T08:15:59;9.77;;;5.20;;
52458;SDS011;38372;52.902;6.024;2024-02-21T08:18:25;9.93;;;5.03;;
52458;SDS011;38372;52.902;6.024;2024-02-21T08:20:50;10.63;;;4.57;;
52458;SDS011;38372;52.902;6.024;2024-02-21T08:23:16;11.05;;;5.25;;
52458;SDS011;38372;52.902;6.024;2024-02-21T08:25:43;13.18;;;5.13;;
52458;SDS011;38372;52.902;6.024;2024-02-21T08:28:09;11.85;;;5.75;;
52458;SDS011;38372;52.902;6.024;2024-02-21T08:30:35;10.30;;;5.07;;
52458;SDS011;38372;52.902;6.024;2024-02-21T08:33:00;12.90;;;5.85;;
52458;SDS011;38372;52.902;6.024;2024-02-21T08:35:26;12.35;;;6.07;;
52458;SDS011;38372;52.902;6.024;2024-02-21T08:37:52;13.38;;;6.78;;
52458;SDS011;38372;52.902;6.024;2024-02-21T08:40:26;16.63;;;5.88;;
52458;SDS011;38372;52.902;6.024;2024-02-21T08:42:54;10.77;;;5.72;;
52458;SDS011;38372;52.902;6.024;2024-02-21T08:45:21;10.43;;;4.70;;
52458;SDS011;38372;52.902;6.024;2024-02-21T08:47:47;14.88;;;5.85;;
52458;SDS011;38372;52.902;6.024;2024-02-21T08:50:13;15.10;;;5.28;;
52458;SDS011;38372;52.902;6.024;2024-02-21T08:52:39;11.88;;;5.10;;
52458;SDS011;38372;52.902;6.024;2024-02-21T08:55:05;9.98;;;4.97;;
52458;SDS011;38372;52.902;6.024;2024-02-21T08:57:32;9.73;;;4.78;;
52458;SDS011;38372;52.902;6.024;2024-02-21T09:00:06;13.13;;;5.32;;
52458;SDS011;38372;52.902;6.024;2024-02-21T09:02:41;11.75;;;5.10;;
52458;SDS011;38372;52.902;6.024;2024-02-21T09:05:13;11.38;;;5.40;;
52458;SDS011;38372;52.902;6.024;2024-02-21T09:07:40;12.48;;;6.32;;
52458;SDS011;38372;52.902;6.024;2024-02-21T09:10:05;12.35;;;5.03;;
52458;SDS011;38372;52.902;6.024;2024-02-21T09:12:32;13.68;;;5.10;;
52458;SDS011;38372;52.902;6.024;2024-02-21T09:14:57;10.63;;;5.00;;
52458;SDS011;38372;52.902;6.024;2024-02-21T09:17:23;8.95;;;5.35;;
52458;SDS011;38372;52.902;6.024;2024-02-21T09:19:50;9.00;;;4.63;;
52458;SDS011;38372;52.902;6.024;2024-02-21T09:22:16;9.38;;;5.28;;
52458;SDS011;38372;52.902;6.024;2024-02-21T09:24:43;10.55;;;4.07;;
52458;SDS011;38372;52.902;6.024;2024-02-21T09:27:09;10.65;;;5.20;;
52458;SDS011;38372;52.902;6.024;2024-02-21T09:29:35;7.90;;;4.57;;
52458;SDS011;38372;52.902;6.024;2024-02-21T09:32:04;7.80;;;4.35;;
52458;SDS011;38372;52.902;6.024;2024-02-21T09:34:30;10.60;;;5.03;;
52458;SDS011;38372;52.902;6.024;2024-02-21T09:36:56;9.07;;;4.70;;
52458;SDS011;38372;52.902;6.024;2024-02-21T09:39:22;16.70;;;6.25;;
52458;SDS011;38372;52.902;6.024;2024-02-21T09:41:58;10.38;;;5.85;;
52458;SDS011;38372;52.902;6.024;2024-02-21T09:44:37;17.40;;;5.95;;
52458;SDS011;38372;52.902;6.024;2024-02-21T09:47:05;8.63;;;5.22;;
52458;SDS011;38372;52.902;6.024;2024-02-21T09:49:35;10.68;;;3.83;;
52458;SDS011;38372;52.902;6.024;2024-02-21T09:52:04;14.50;;;7.40;;
52458;SDS011;38372;52.902;6.024;2024-02-21T09:54:32;12.45;;;5.97;;
52458;SDS011;38372;52.902;6.024;2024-02-21T09:56:59;5.18;;;2.90;;
52458;SDS011;38372;52.902;6.024;2024-02-21T09:59:27;18.52;;;7.20;;
52458;SDS011;38372;52.902;6.024;2024-02-21T10:01:55;12.85;;;5.63;;
52458;SDS011;38372;52.902;6.024;2024-02-21T10:04:21;14.93;;;5.47;;
52458;SDS011;38372;52.902;6.024;2024-02-21T10:06:47;11.90;;;6.03;;
52458;SDS011;38372;52.902;6.024;2024-02-21T10:09:20;14.77;;;6.45;;
52458;SDS011;38372;52.902;6.024;2024-02-21T10:11:50;17.73;;;6.40;;
52458;SDS011;38372;52.902;6.024;2024-02-21T10:14:16;12.20;;;6.78;;
52458;SDS011;38372;52.902;6.024;2024-02-21T10:16:43;12.55;;;5.93;;
52458;SDS011;38372;52.902;6.024;2024-02-21T10:19:17;14.23;;;6.88;;
52458;SDS011;38372;52.902;6.024;2024-02-21T10:21:44;14.30;;;6.15;;
52458;SDS011;38372;52.902;6.024;2024-02-21T10:24:26;13.55;;;6.95;;
52458;SDS011;38372;52.902;6.024;2024-02-21T10:27:13;15.25;;;8.15;;
52458;SDS011;38372;52.902;6.024;2024-02-21T10:29:41;22.33;;;10.65;;
52458;SDS011;38372;52.902;6.024;2024-02-21T10:32:07;21.73;;;9.43;;
52458;SDS011;38372;52.902;6.024;2024-02-21T10:34:39;23.95;;;9.65;;
52458;SDS011;38372;52.902;6.024;2024-02-21T10:37:07;17.67;;;9.30;;
52458;SDS011;38372;52.902;6.024;2024-02-21T10:39:41;16.05;;;7.22;;
52458;SDS011;38372;52.902;6.024;2024-02-21T10:42:15;17.27;;;8.68;;
52458;SDS011;38372;52.902;6.024;2024-02-21T10:44:51;12.25;;;6.10;;
52458;SDS011;38372;52.902;6.024;2024-02-21T10:47:18;16.67;;;7.40;;
52458;SDS011;38372;52.902;6.024;2024-02-21T10:55:04;18.10;;;6.85;;
52458;SDS011;38372;52.902;6.024;2024-02-21T10:57:39;10.95;;;7.03;;
52458;SDS011;38372;52.902;6.024;2024-02-21T11:00:05;15.55;;;5.32;;
52458;SDS011;38372;52.902;6.024;2024-02-21T11:02:46;15.20;;;4.88;;
52458;SDS011;38372;52.902;6.024;2024-02-21T11:05:20;9.85;;;5.15;;
52458;SDS011;38372;52.902;6.024;2024-02-21T11:07:48;17.77;;;4.45;;
52458;SDS011;38372;52.902;6.024;2024-02-21T11:10:22;9.40;;;4.85;;
52458;SDS011;38372;52.902;6.024;2024-02-21T11:13:07;2.83;;;2.20;;
52458;SDS011;38372;52.902;6.024;2024-02-21T11:15:35;9.07;;;5.13;;
52458;SDS011;38372;52.902;6.024;2024-02-21T11:18:07;10.18;;;4.85;;
52458;SDS011;38372;52.902;6.024;2024-02-21T11:20:33;9.68;;;4.85;;
52458;SDS011;38372;52.902;6.024;2024-02-21T11:23:00;15.77;;;5.85;;
52458;SDS011;38372;52.902;6.024;2024-02-21T11:25:30;9.90;;;4.72;;
52458;SDS011;38372;52.902;6.024;2024-02-21T11:28:02;5.35;;;3.65;;
52458;SDS011;38372;52.902;6.024;2024-02-21T11:30:30;2.30;;;1.60;;
52458;SDS011;38372;52.902;6.024;2024-02-21T11:33:03;4.38;;;2.97;;
52458;SDS011;38372;52.902;6.024;2024-02-21T11:35:32;8.50;;;4.43;;
52458;SDS011;38372;52.902;6.024;2024-02-21T11:38:13;7.15;;;3.92;;
52458;SDS011;38372;52.902;6.024;2024-02-21T11:40:49;10.10;;;3.85;;
52458;SDS011;38372;52.902;6.024;2024-02-21T11:43:28;7.07;;;3.83;;
52458;SDS011;38372;52.902;6.024;2024-02-21T11:46:13;5.82;;;3.42;;
52458;SDS011;38372;52.902;6.024;2024-02-21T11:48:40;5.15;;;3.13;;
52458;SDS011;38372;52.902;6.024;2024-02-21T11:51:06;8.00;;;4.25;;
52458;SDS011;38372;52.902;6.024;2024-02-21T11:53:32;6.93;;;3.40;;
52458;SDS011;38372;52.902;6.024;2024-02-21T11:55:58;10.43;;;3.58;;
52458;SDS011;38372;52.902;6.024;2024-02-21T11:58:24;8.05;;;3.92;;
52458;SDS011;38372;52.902;6.024;2024-02-21T12:00:52;8.35;;;3.00;;
52458;SDS011;38372;52.902;6.024;2024-02-21T12:03:19;3.50;;;2.03;;
52458;SDS011;38372;52.902;6.024;2024-02-21T12:05:45;10.05;;;4.15;;
52458;SDS011;38372;52.902;6.024;2024-02-21T12:08:12;7.72;;;4.05;;
52458;SDS011;38372;52.902;6.024;2024-02-21T12:10:44;5.68;;;2.80;;
52458;SDS011;38372;52.902;6.024;2024-02-21T12:13:10;5.85;;;2.85;;
52458;SDS011;38372;52.902;6.024;2024-02-21T12:15:38;2.78;;;2.15;;
52458;SDS011;38372;52.902;6.024;2024-02-21T12:18:05;3.47;;;1.52;;
52458;SDS011;38372;52.902;6.024;2024-02-21T12:20:35;6.50;;;3.30;;
52458;SDS011;38372;52.902;6.024;2024-02-21T12:23:01;4.90;;;2.05;;
52458;SDS011;38372;52.902;6.024;2024-02-21T12:25:28;9.00;;;4.15;;
52458;SDS011;38372;52.902;6.024;2024-02-21T12:27:54;6.55;;;3.53;;
52458;SDS011;38372;52.902;6.024;2024-02-21T12:30:22;10.80;;;4.07;;
52458;SDS011;38372;52.902;6.024;2024-02-21T12:32:48;9.18;;;4.88;;
52458;SDS011;38372;52.902;6.024;2024-02-21T12:35:14;5.72;;;3.22;;
52458;SDS011;38372;52.902;6.024;2024-02-21T12:37:40;7.70;;;3.08;;
52458;SDS011;38372;52.902;6.024;2024-02-21T12:40:14;6.32;;;2.33;;
52458;SDS011;38372;52.902;6.024;2024-02-21T12:42:47;9.65;;;3.80;;
52458;SDS011;38372;52.902;6.024;2024-02-21T12:45:14;9.23;;;2.92;;
52458;SDS011;38372;52.902;6.024;2024-02-21T12:47:40;5.85;;;3.08;;
52458;SDS011;38372;52.902;6.024;2024-02-21T12:50:06;3.35;;;1.17;;
52458;SDS011;38372;52.902;6.024;2024-02-21T12:52:32;4.30;;;2.40;;
52458;SDS011;38372;52.902;6.024;2024-02-21T12:54:58;4.88;;;2.30;;
52458;SDS011;38372;52.902;6.024;2024-02-21T12:57:24;3.03;;;1.90;;
52458;SDS011;38372;52.902;6.024;2024-02-21T12:59:50;3.20;;;1.92;;
52458;SDS011;38372;52.902;6.024;2024-02-21T13:02:18;4.22;;;1.95;;
52458;SDS011;38372;52.902;6.024;2024-02-21T13:04:45;3.83;;;2.17;;
52458;SDS011;38372;52.902;6.024;2024-02-21T13:07:11;5.22;;;2.97;;
52458;SDS011;38372;52.902;6.024;2024-02-21T13:09:37;4.28;;;1.45;;
52458;SDS011;38372;52.902;6.024;2024-02-21T13:12:03;3.08;;;1.48;;
52458;SDS011;38372;52.902;6.024;2024-02-21T13:14:30;4.72;;;2.00;;
52458;SDS011;38372;52.902;6.024;2024-02-21T13:16:58;2.97;;;1.63;;
52458;SDS011;38372;52.902;6.024;2024-02-21T13:19:23;0.85;;;0.73;;
52458;SDS011;38372;52.902;6.024;2024-02-21T13:21:49;3.25;;;2.17;;
52458;SDS011;38372;52.902;6.024;2024-02-21T13:24:15;2.45;;;1.58;;
52458;SDS011;38372;52.902;6.024;2024-02-21T13:26:41;8.85;;;2.75;;
52458;SDS011;38372;52.902;6.024;2024-02-21T13:29:07;3.47;;;1.88;;
52458;SDS011;38372;52.902;6.024;2024-02-21T13:31:33;3.88;;;1.85;;
52458;SDS011;38372;52.902;6.024;2024-02-21T13:33:59;4.72;;;2.55;;
52458;SDS011;38372;52.902;6.024;2024-02-21T13:36:25;6.65;;;2.08;;
52458;SDS011;38372;52.902;6.024;2024-02-21T13:38:51;5.22;;;2.83;;
52458;SDS011;38372;52.902;6.024;2024-02-21T13:41:18;3.05;;;1.90;;
52458;SDS011;38372;52.902;6.024;2024-02-21T13:43:50;4.28;;;2.28;;
52458;SDS011;38372;52.902;6.024;2024-02-21T13:46:16;3.88;;;2.53;;
52458;SDS011;38372;52.902;6.024;2024-02-21T13:48:42;6.82;;;2.35;;
52458;SDS011;38372;52.902;6.024;2024-02-21T13:51:07;5.80;;;2.05;;
52458;SDS011;38372;52.902;6.024;2024-02-21T13:53:37;3.20;;;2.10;;
52458;SDS011;38372;52.902;6.024;2024-02-21T13:56:02;3.83;;;2.10;;
52458;SDS011;38372;52.902;6.024;2024-02-21T13:58:29;4.68;;;2.78;;
52458;SDS011;38372;52.902;6.024;2024-02-21T14:00:54;3.22;;;1.90;;
52458;SDS011;38372;52.902;6.024;2024-02-21T14:03:21;5.40;;;2.55;;
52458;SDS011;38372;52.902;6.024;2024-02-21T14:05:47;2.50;;;1.50;;
52458;SDS011;38372;52.902;6.024;2024-02-21T14:08:13;4.22;;;1.95;;
52458;SDS011;38372;52.902;6.024;2024-02-21T14:10:40;2.67;;;1.73;;
52458;SDS011;38372;52.902;6.024;2024-02-21T14:13:05;2.85;;;1.40;;
52458;SDS011;38372;52.902;6.024;2024-02-21T14:15:31;6.72;;;3.00;;
52458;SDS011;38372;52.902;6.024;2024-02-21T14:17:58;3.83;;;1.90;;
52458;SDS011;38372;52.902;6.024;2024-02-21T14:20:24;5.85;;;2.60;;
52458;SDS011;38372;52.902;6.024;2024-02-21T14:22:53;12.80;;;2.42;;
52458;SDS011;38372;52.902;6.024;2024-02-21T14:25:20;4.57;;;2.38;;
52458;SDS011;38372;52.902;6.024;2024-02-21T14:27:46;5.40;;;1.98;;
52458;SDS011;38372;52.902;6.024;2024-02-21T14:30:11;4.65;;;2.25;;
52458;SDS011;38372;52.902;6.024;2024-02-21T14:32:43;3.63;;;1.75;;
52458;SDS011;38372;52.902;6.024;2024-02-21T14:35:10;6.97;;;3.22;;
52458;SDS011;38372;52.902;6.024;2024-02-21T14:37:44;2.92;;;1.88;;
52458;SDS011;38372;52.902;6.024;2024-02-21T14:44:42;6.65;;;2.97;;
52458;SDS011;38372;52.902;6.024;2024-02-21T14:47:09;3.72;;;1.63;;
52458;SDS011;38372;52.902;6.024;2024-02-21T14:49:35;7.45;;;2.05;;
52458;SDS011;38372;52.902;6.024;2024-02-21T14:52:01;7.85;;;2.03;;
52458;SDS011;38372;52.902;6.024;2024-02-21T14:54:28;4.38;;;1.55;;
52458;SDS011;38372;52.902;6.024;2024-02-21T14:56:55;4.07;;;1.48;;
52458;SDS011;38372;52.902;6.024;2024-02-21T14:59:21;14.05;;;2.40;;